sensor_id;sensor_type;location;lat;lon;timestamp;temperature;humidity
71396;DHT22;59888;55.814;37.132;2023-08-24T00:02:15;16.85;66.51
71396;DHT22;59888;55.814;37.132;2023-08-24T00:04:43;16.87;66.18
71396;DHT22;59888;55.814;37.132;2023-08-24T00:07:09;16.93;66.36
71396;DHT22;59888;55.814;37.132;2023-08-24T00:09:34;17.04;66.06
71396;DHT22;59888;55.814;37.132;2023-08-24T00:12:01;17.08;65.88
71396;DHT22;59888;55.814;37.132;2023-08-24T00:14:27;17.06;65.88
71396;DHT22;59888;55.814;37.132;2023-08-24T00:16:54;17.09;65.73
71396;DHT22;59888;55.814;37.132;2023-08-24T00:19:20;17.11;65.65
71396;DHT22;59888;55.814;37.132;2023-08-24T00:21:46;17.08;65.59
71396;DHT22;59888;55.814;37.132;2023-08-24T00:24:13;17.00;66.36
71396;DHT22;59888;55.814;37.132;2023-08-24T00:26:39;16.93;66.00
71396;DHT22;59888;55.814;37.132;2023-08-24T00:29:05;16.95;65.82
71396;DHT22;59888;55.814;37.132;2023-08-24T00:31:32;16.94;65.98
71396;DHT22;59888;55.814;37.132;2023-08-24T00:33:58;16.96;65.94
71396;DHT22;59888;55.814;37.132;2023-08-24T00:36:25;16.95;65.48
71396;DHT22;59888;55.814;37.132;2023-08-24T00:38:51;16.95;65.84
71396;DHT22;59888;55.814;37.132;2023-08-24T00:41:19;17.00;65.98
71396;DHT22;59888;55.814;37.132;2023-08-24T00:43:47;17.07;65.90
71396;DHT22;59888;55.814;37.132;2023-08-24T00:46:13;17.13;65.36
71396;DHT22;59888;55.814;37.132;2023-08-24T00:48:39;17.03;65.98
71396;DHT22;59888;55.814;37.132;2023-08-24T00:51:05;16.82;66.78
71396;DHT22;59888;55.814;37.132;2023-08-24T00:53:31;16.67;67.09
71396;DHT22;59888;55.814;37.132;2023-08-24T00:55:58;16.64;66.59
71396;DHT22;59888;55.814;37.132;2023-08-24T00:58:27;16.66;66.65
71396;DHT22;59888;55.814;37.132;2023-08-24T01:00:55;16.71;66.73
71396;DHT22;59888;55.814;37.132;2023-08-24T01:03:22;16.70;66.70
71396;DHT22;59888;55.814;37.132;2023-08-24T01:05:51;16.69;66.72
71396;DHT22;59888;55.814;37.132;2023-08-24T01:08:19;16.71;66.77
71396;DHT22;59888;55.814;37.132;2023-08-24T01:10:51;16.84;66.58
71396;DHT22;59888;55.814;37.132;2023-08-24T01:13:30;16.94;66.66
71396;DHT22;59888;55.814;37.132;2023-08-24T01:16:00;16.88;66.36
71396;DHT22;59888;55.814;37.132;2023-08-24T01:18:28;16.89;66.36
71396;DHT22;59888;55.814;37.132;2023-08-24T01:20:55;16.95;66.26
71396;DHT22;59888;55.814;37.132;2023-08-24T01:26:13;17.08;66.33
71396;DHT22;59888;55.814;37.132;2023-08-24T01:28:42;17.10;65.95
71396;DHT22;59888;55.814;37.132;2023-08-24T01:31:09;17.16;65.71
71396;DHT22;59888;55.814;37.132;2023-08-24T01:33:35;17.16;65.72
71396;DHT22;59888;55.814;37.132;2023-08-24T01:36:01;17.17;65.75
71396;DHT22;59888;55.814;37.132;2023-08-24T01:38:54;17.26;65.93
71396;DHT22;59888;55.814;37.132;2023-08-24T01:41:30;17.33;65.47
71396;DHT22;59888;55.814;37.132;2023-08-24T01:44:00;17.38;65.22
71396;DHT22;59888;55.814;37.132;2023-08-24T01:46:29;17.45;65.05
71396;DHT22;59888;55.814;37.132;2023-08-24T01:48:58;17.49;64.92
71396;DHT22;59888;55.814;37.132;2023-08-24T01:51:26;17.55;64.78
71396;DHT22;59888;55.814;37.132;2023-08-24T01:53:53;17.60;64.66
71396;DHT22;59888;55.814;37.132;2023-08-24T01:56:19;17.60;64.50
71396;DHT22;59888;55.814;37.132;2023-08-24T01:58:45;17.52;64.65
71396;DHT22;59888;55.814;37.132;2023-08-24T02:01:11;17.54;64.66
71396;DHT22;59888;55.814;37.132;2023-08-24T02:03:38;17.59;64.66
71396;DHT22;59888;55.814;37.132;2023-08-24T02:06:05;17.59;64.66
71396;DHT22;59888;55.814;37.132;2023-08-24T02:08:33;17.61;64.56
71396;DHT22;59888;55.814;37.132;2023-08-24T02:10:59;17.61;64.63
71396;DHT22;59888;55.814;37.132;2023-08-24T02:13:25;17.62;64.69
71396;DHT22;59888;55.814;37.132;2023-08-24T02:16:07;17.66;64.98
71396;DHT22;59888;55.814;37.132;2023-08-24T02:18:36;17.70;64.63
71396;DHT22;59888;55.814;37.132;2023-08-24T02:21:11;17.73;64.66
71396;DHT22;59888;55.814;37.132;2023-08-24T02:23:38;17.53;64.89
71396;DHT22;59888;55.814;37.132;2023-08-24T02:26:06;17.26;65.62
71396;DHT22;59888;55.814;37.132;2023-08-24T02:28:38;17.11;65.89
71396;DHT22;59888;55.814;37.132;2023-08-24T02:31:04;17.10;65.86
71396;DHT22;59888;55.814;37.132;2023-08-24T02:33:31;17.09;65.96
71396;DHT22;59888;55.814;37.132;2023-08-24T02:35:57;17.20;65.81
71396;DHT22;59888;55.814;37.132;2023-08-24T02:38:24;17.33;65.56
71396;DHT22;59888;55.814;37.132;2023-08-24T02:41:04;17.44;65.47
71396;DHT22;59888;55.814;37.132;2023-08-24T02:43:37;17.45;65.37
71396;DHT22;59888;55.814;37.132;2023-08-24T02:46:06;17.43;65.14
71396;DHT22;59888;55.814;37.132;2023-08-24T02:48:33;17.46;65.01
71396;DHT22;59888;55.814;37.132;2023-08-24T02:51:03;17.52;64.90
71396;DHT22;59888;55.814;37.132;2023-08-24T02:53:30;17.48;64.87
71396;DHT22;59888;55.814;37.132;2023-08-24T02:55:57;17.49;64.94
71396;DHT22;59888;55.814;37.132;2023-08-24T02:58:23;17.54;64.81
71396;DHT22;59888;55.814;37.132;2023-08-24T03:00:50;17.55;64.84
71396;DHT22;59888;55.814;37.132;2023-08-24T03:03:16;17.61;64.77
71396;DHT22;59888;55.814;37.132;2023-08-24T03:08:25;17.70;64.76
71396;DHT22;59888;55.814;37.132;2023-08-24T03:10:52;17.75;64.42
71396;DHT22;59888;55.814;37.132;2023-08-24T03:13:18;17.80;64.32
71396;DHT22;59888;55.814;37.132;2023-08-24T03:15:44;17.82;64.34
71396;DHT22;59888;55.814;37.132;2023-08-24T03:18:15;17.87;64.46
71396;DHT22;59888;55.814;37.132;2023-08-24T03:20:43;17.93;64.43
71396;DHT22;59888;55.814;37.132;2023-08-24T03:23:09;17.98;64.33
71396;DHT22;59888;55.814;37.132;2023-08-24T03:25:36;18.04;64.21
71396;DHT22;59888;55.814;37.132;2023-08-24T03:28:05;18.08;64.14
71396;DHT22;59888;55.814;37.132;2023-08-24T03:30:33;18.12;64.06
71396;DHT22;59888;55.814;37.132;2023-08-24T03:32:59;18.17;63.91
71396;DHT22;59888;55.814;37.132;2023-08-24T03:35:25;18.22;63.77
71396;DHT22;59888;55.814;37.132;2023-08-24T03:37:51;18.23;63.66
71396;DHT22;59888;55.814;37.132;2023-08-24T03:40:17;18.24;63.56
71396;DHT22;59888;55.814;37.132;2023-08-24T03:42:45;18.23;63.42
71396;DHT22;59888;55.814;37.132;2023-08-24T03:45:11;18.28;63.54
71396;DHT22;59888;55.814;37.132;2023-08-24T03:47:38;18.32;63.54
71396;DHT22;59888;55.814;37.132;2023-08-24T03:50:04;18.37;63.44
71396;DHT22;59888;55.814;37.132;2023-08-24T03:52:31;18.42;63.36
71396;DHT22;59888;55.814;37.132;2023-08-24T03:54:57;18.44;63.08
71396;DHT22;59888;55.814;37.132;2023-08-24T03:57:23;18.47;63.08
71396;DHT22;59888;55.814;37.132;2023-08-24T03:59:50;18.48;63.02
71396;DHT22;59888;55.814;37.132;2023-08-24T04:02:16;18.49;62.98
71396;DHT22;59888;55.814;37.132;2023-08-24T04:04:43;18.50;62.90
71396;DHT22;59888;55.814;37.132;2023-08-24T04:07:09;18.46;62.90
71396;DHT22;59888;55.814;37.132;2023-08-24T04:09:35;18.49;62.92
71396;DHT22;59888;55.814;37.132;2023-08-24T04:12:01;18.49;62.91
71396;DHT22;59888;55.814;37.132;2023-08-24T04:14:28;18.57;62.90
71396;DHT22;59888;55.814;37.132;2023-08-24T04:16:55;18.65;62.86
71396;DHT22;59888;55.814;37.132;2023-08-24T04:19:21;18.71;62.63
71396;DHT22;59888;55.814;37.132;2023-08-24T04:21:47;18.73;62.44
71396;DHT22;59888;55.814;37.132;2023-08-24T04:24:13;18.79;62.37
71396;DHT22;59888;55.814;37.132;2023-08-24T04:26:39;18.87;62.24
71396;DHT22;59888;55.814;37.132;2023-08-24T04:29:06;18.98;62.09
71396;DHT22;59888;55.814;37.132;2023-08-24T04:31:32;19.02;61.91
71396;DHT22;59888;55.814;37.132;2023-08-24T04:33:57;19.09;61.70
71396;DHT22;59888;55.814;37.132;2023-08-24T04:36:23;19.11;61.55
71396;DHT22;59888;55.814;37.132;2023-08-24T04:38:49;19.17;61.25
71396;DHT22;59888;55.814;37.132;2023-08-24T04:41:16;19.17;61.21
71396;DHT22;59888;55.814;37.132;2023-08-24T04:43:42;19.27;61.24
71396;DHT22;59888;55.814;37.132;2023-08-24T04:46:08;19.27;61.04
71396;DHT22;59888;55.814;37.132;2023-08-24T04:48:34;19.27;60.93
71396;DHT22;59888;55.814;37.132;2023-08-24T04:51:01;19.29;60.76
71396;DHT22;59888;55.814;37.132;2023-08-24T04:53:27;19.31;60.76
71396;DHT22;59888;55.814;37.132;2023-08-24T04:55:53;19.38;60.66
71396;DHT22;59888;55.814;37.132;2023-08-24T04:58:19;19.41;60.59
71396;DHT22;59888;55.814;37.132;2023-08-24T05:00:45;19.50;60.44
71396;DHT22;59888;55.814;37.132;2023-08-24T05:03:12;19.53;60.22
71396;DHT22;59888;55.814;37.132;2023-08-24T05:05:44;19.55;60.19
71396;DHT22;59888;55.814;37.132;2023-08-24T05:08:13;19.59;60.22
71396;DHT22;59888;55.814;37.132;2023-08-24T05:10:39;19.71;60.03
71396;DHT22;59888;55.814;37.132;2023-08-24T05:13:05;19.75;59.87
71396;DHT22;59888;55.814;37.132;2023-08-24T05:15:31;19.85;59.77
71396;DHT22;59888;55.814;37.132;2023-08-24T05:17:57;19.98;59.67
71396;DHT22;59888;55.814;37.132;2023-08-24T05:20:26;20.12;59.38
71396;DHT22;59888;55.814;37.132;2023-08-24T05:22:53;20.19;59.25
71396;DHT22;59888;55.814;37.132;2023-08-24T05:25:22;20.29;59.11
71396;DHT22;59888;55.814;37.132;2023-08-24T05:27:48;20.31;58.89
71396;DHT22;59888;55.814;37.132;2023-08-24T05:30:14;20.34;58.74
71396;DHT22;59888;55.814;37.132;2023-08-24T05:32:40;20.36;58.71
71396;DHT22;59888;55.814;37.132;2023-08-24T05:35:07;20.35;58.56
71396;DHT22;59888;55.814;37.132;2023-08-24T05:37:34;20.31;58.46
71396;DHT22;59888;55.814;37.132;2023-08-24T05:40:01;20.27;58.52
71396;DHT22;59888;55.814;37.132;2023-08-24T05:42:30;20.26;58.51
71396;DHT22;59888;55.814;37.132;2023-08-24T05:44:56;20.32;58.58
71396;DHT22;59888;55.814;37.132;2023-08-24T05:47:22;20.41;58.40
71396;DHT22;59888;55.814;37.132;2023-08-24T05:49:48;20.47;58.28
71396;DHT22;59888;55.814;37.132;2023-08-24T05:52:14;20.56;58.18
71396;DHT22;59888;55.814;37.132;2023-08-24T05:54:40;20.63;58.00
71396;DHT22;59888;55.814;37.132;2023-08-24T05:57:06;20.70;57.89
71396;DHT22;59888;55.814;37.132;2023-08-24T05:59:33;20.75;57.74
71396;DHT22;59888;55.814;37.132;2023-08-24T06:01:59;20.79;57.74
71396;DHT22;59888;55.814;37.132;2023-08-24T06:04:25;20.84;57.62
71396;DHT22;59888;55.814;37.132;2023-08-24T06:06:51;20.85;57.56
71396;DHT22;59888;55.814;37.132;2023-08-24T06:09:17;20.81;57.61
71396;DHT22;59888;55.814;37.132;2023-08-24T06:11:43;20.79;57.53
71396;DHT22;59888;55.814;37.132;2023-08-24T06:14:10;20.79;57.54
71396;DHT22;59888;55.814;37.132;2023-08-24T06:16:36;20.84;57.50
71396;DHT22;59888;55.814;37.132;2023-08-24T06:19:02;20.87;57.49
71396;DHT22;59888;55.814;37.132;2023-08-24T06:21:29;20.89;57.35
71396;DHT22;59888;55.814;37.132;2023-08-24T06:23:55;20.90;57.37
71396;DHT22;59888;55.814;37.132;2023-08-24T06:26:21;20.90;57.29
71396;DHT22;59888;55.814;37.132;2023-08-24T06:28:47;20.88;57.35
71396;DHT22;59888;55.814;37.132;2023-08-24T06:31:13;20.89;57.19
71396;DHT22;59888;55.814;37.132;2023-08-24T06:33:41;20.90;57.23
71396;DHT22;59888;55.814;37.132;2023-08-24T06:36:08;20.91;57.12
71396;DHT22;59888;55.814;37.132;2023-08-24T06:38:34;20.86;57.15
71396;DHT22;59888;55.814;37.132;2023-08-24T06:41:00;20.81;57.29
71396;DHT22;59888;55.814;37.132;2023-08-24T06:43:27;20.79;57.38
71396;DHT22;59888;55.814;37.132;2023-08-24T06:45:56;20.77;57.39
71396;DHT22;59888;55.814;37.132;2023-08-24T06:48:23;20.73;57.44
71396;DHT22;59888;55.814;37.132;2023-08-24T06:50:49;20.69;57.55
71396;DHT22;59888;55.814;37.132;2023-08-24T06:53:15;20.57;57.57
71396;DHT22;59888;55.814;37.132;2023-08-24T06:55:41;20.57;57.80
71396;DHT22;59888;55.814;37.132;2023-08-24T06:58:07;20.53;57.91
71396;DHT22;59888;55.814;37.132;2023-08-24T07:00:33;20.49;58.10
71396;DHT22;59888;55.814;37.132;2023-08-24T07:02:59;20.51;58.15
71396;DHT22;59888;55.814;37.132;2023-08-24T07:05:25;20.57;58.06
71396;DHT22;59888;55.814;37.132;2023-08-24T07:07:52;20.57;57.98
71396;DHT22;59888;55.814;37.132;2023-08-24T07:10:19;20.56;58.12
71396;DHT22;59888;55.814;37.132;2023-08-24T07:12:46;20.59;58.08
71396;DHT22;59888;55.814;37.132;2023-08-24T07:15:13;20.60;57.95
71396;DHT22;59888;55.814;37.132;2023-08-24T07:17:39;20.57;58.08
71396;DHT22;59888;55.814;37.132;2023-08-24T07:20:06;20.65;58.12
71396;DHT22;59888;55.814;37.132;2023-08-24T07:22:34;20.72;58.06
71396;DHT22;59888;55.814;37.132;2023-08-24T07:25:00;20.77;57.87
71396;DHT22;59888;55.814;37.132;2023-08-24T07:27:27;20.75;57.88
71396;DHT22;59888;55.814;37.132;2023-08-24T07:29:54;20.72;57.63
71396;DHT22;59888;55.814;37.132;2023-08-24T07:32:20;20.69;57.82
71396;DHT22;59888;55.814;37.132;2023-08-24T07:38:00;20.65;57.71
71396;DHT22;59888;55.814;37.132;2023-08-24T07:40:26;20.66;57.52
71396;DHT22;59888;55.814;37.132;2023-08-24T07:42:53;20.60;57.58
71396;DHT22;59888;55.814;37.132;2023-08-24T07:45:21;20.63;57.69
71396;DHT22;59888;55.814;37.132;2023-08-24T07:47:49;20.62;57.39
71396;DHT22;59888;55.814;37.132;2023-08-24T07:50:16;20.61;57.60
71396;DHT22;59888;55.814;37.132;2023-08-24T07:52:42;20.64;57.60
71396;DHT22;59888;55.814;37.132;2023-08-24T07:55:08;20.60;57.52
71396;DHT22;59888;55.814;37.132;2023-08-24T07:57:38;20.63;57.64
71396;DHT22;59888;55.814;37.132;2023-08-24T08:00:14;20.68;57.53
71396;DHT22;59888;55.814;37.132;2023-08-24T08:02:42;20.74;57.40
71396;DHT22;59888;55.814;37.132;2023-08-24T08:05:11;20.83;57.13
71396;DHT22;59888;55.814;37.132;2023-08-24T08:07:38;20.89;56.88
71396;DHT22;59888;55.814;37.132;2023-08-24T08:10:10;20.92;56.68
71396;DHT22;59888;55.814;37.132;2023-08-24T08:12:36;20.93;56.45
71396;DHT22;59888;55.814;37.132;2023-08-24T08:15:02;21.01;56.61
71396;DHT22;59888;55.814;37.132;2023-08-24T08:17:32;21.15;56.25
71396;DHT22;59888;55.814;37.132;2023-08-24T08:19:59;21.30;55.97
71396;DHT22;59888;55.814;37.132;2023-08-24T08:22:25;21.35;56.01
71396;DHT22;59888;55.814;37.132;2023-08-24T08:25:13;21.39;55.44
71396;DHT22;59888;55.814;37.132;2023-08-24T08:27:40;21.31;55.78
71396;DHT22;59888;55.814;37.132;2023-08-24T08:30:06;21.34;55.94
71396;DHT22;59888;55.814;37.132;2023-08-24T08:32:33;21.40;55.58
71396;DHT22;59888;55.814;37.132;2023-08-24T08:34:59;21.46;55.68
71396;DHT22;59888;55.814;37.132;2023-08-24T08:37:32;21.59;55.45
71396;DHT22;59888;55.814;37.132;2023-08-24T08:39:59;21.69;55.26
71396;DHT22;59888;55.814;37.132;2023-08-24T08:42:25;21.81;55.10
71396;DHT22;59888;55.814;37.132;2023-08-24T08:44:52;22.03;54.71
71396;DHT22;59888;55.814;37.132;2023-08-24T08:47:20;22.22;54.28
71396;DHT22;59888;55.814;37.132;2023-08-24T08:49:48;22.41;53.80
71396;DHT22;59888;55.814;37.132;2023-08-24T08:52:14;22.43;53.52
71396;DHT22;59888;55.814;37.132;2023-08-24T08:54:41;22.46;53.10
71396;DHT22;59888;55.814;37.132;2023-08-24T08:57:07;22.43;53.12
71396;DHT22;59888;55.814;37.132;2023-08-24T08:59:33;22.49;53.19
71396;DHT22;59888;55.814;37.132;2023-08-24T09:02:03;22.50;52.88
71396;DHT22;59888;55.814;37.132;2023-08-24T09:04:31;22.49;53.15
71396;DHT22;59888;55.814;37.132;2023-08-24T09:06:57;22.42;52.94
71396;DHT22;59888;55.814;37.132;2023-08-24T09:09:29;22.36;52.97
71396;DHT22;59888;55.814;37.132;2023-08-24T09:11:55;22.36;53.05
71396;DHT22;59888;55.814;37.132;2023-08-24T09:14:21;22.38;53.03
71396;DHT22;59888;55.814;37.132;2023-08-24T09:16:47;22.40;53.14
71396;DHT22;59888;55.814;37.132;2023-08-24T09:19:34;22.33;52.52
71396;DHT22;59888;55.814;37.132;2023-08-24T09:22:02;22.28;52.68
71396;DHT22;59888;55.814;37.132;2023-08-24T09:24:32;22.28;52.51
71396;DHT22;59888;55.814;37.132;2023-08-24T09:26:58;22.24;52.53
71396;DHT22;59888;55.814;37.132;2023-08-24T09:29:25;22.20;52.82
71396;DHT22;59888;55.814;37.132;2023-08-24T09:31:51;22.22;52.65
71396;DHT22;59888;55.814;37.132;2023-08-24T09:37:22;22.27;52.56
71396;DHT22;59888;55.814;37.132;2023-08-24T09:40:00;22.32;52.22
71396;DHT22;59888;55.814;37.132;2023-08-24T09:43:02;22.26;51.85
71396;DHT22;59888;55.814;37.132;2023-08-24T09:45:33;22.26;52.20
71396;DHT22;59888;55.814;37.132;2023-08-24T09:48:00;22.32;51.95
71396;DHT22;59888;55.814;37.132;2023-08-24T09:50:26;22.42;51.90
71396;DHT22;59888;55.814;37.132;2023-08-24T09:53:00;22.58;51.37
71396;DHT22;59888;55.814;37.132;2023-08-24T09:55:29;22.81;51.15
71396;DHT22;59888;55.814;37.132;2023-08-24T09:58:00;22.98;50.83
71396;DHT22;59888;55.814;37.132;2023-08-24T10:00:27;23.14;50.69
71396;DHT22;59888;55.814;37.132;2023-08-24T10:02:54;23.22;50.43
71396;DHT22;59888;55.814;37.132;2023-08-24T10:05:24;23.32;50.30
71396;DHT22;59888;55.814;37.132;2023-08-24T10:07:55;23.53;49.92
71396;DHT22;59888;55.814;37.132;2023-08-24T10:10:27;23.65;49.02
71396;DHT22;59888;55.814;37.132;2023-08-24T10:13:06;23.67;49.14
71396;DHT22;59888;55.814;37.132;2023-08-24T10:15:35;23.64;49.11
71396;DHT22;59888;55.814;37.132;2023-08-24T10:18:02;23.51;48.96
71396;DHT22;59888;55.814;37.132;2023-08-24T10:20:29;23.40;49.53
71396;DHT22;59888;55.814;37.132;2023-08-24T10:22:57;23.39;49.26
71396;DHT22;59888;55.814;37.132;2023-08-24T10:25:25;23.40;49.43
71396;DHT22;59888;55.814;37.132;2023-08-24T10:27:52;23.53;49.47
71396;DHT22;59888;55.814;37.132;2023-08-24T10:30:20;23.73;48.88
71396;DHT22;59888;55.814;37.132;2023-08-24T10:32:46;23.94;48.72
71396;DHT22;59888;55.814;37.132;2023-08-24T10:35:14;24.02;48.29
71396;DHT22;59888;55.814;37.132;2023-08-24T10:37:44;23.97;47.51
71396;DHT22;59888;55.814;37.132;2023-08-24T10:40:13;23.84;48.18
71396;DHT22;59888;55.814;37.132;2023-08-24T10:42:46;23.73;47.92
71396;DHT22;59888;55.814;37.132;2023-08-24T10:45:13;23.54;48.18
71396;DHT22;59888;55.814;37.132;2023-08-24T10:47:45;23.37;48.51
71396;DHT22;59888;55.814;37.132;2023-08-24T10:50:14;23.08;48.76
71396;DHT22;59888;55.814;37.132;2023-08-24T10:52:43;22.82;48.64
71396;DHT22;59888;55.814;37.132;2023-08-24T10:55:23;22.60;49.00
71396;DHT22;59888;55.814;37.132;2023-08-24T10:57:57;22.46;49.86
71396;DHT22;59888;55.814;37.132;2023-08-24T11:00:27;22.23;49.79
71396;DHT22;59888;55.814;37.132;2023-08-24T11:02:54;22.02;50.40
71396;DHT22;59888;55.814;37.132;2023-08-24T11:05:22;21.73;50.77
71396;DHT22;59888;55.814;37.132;2023-08-24T11:08:00;21.52;51.04
71396;DHT22;59888;55.814;37.132;2023-08-24T11:10:45;21.46;51.20
71396;DHT22;59888;55.814;37.132;2023-08-24T11:13:17;21.49;51.50
71396;DHT22;59888;55.814;37.132;2023-08-24T11:15:49;21.52;51.71
71396;DHT22;59888;55.814;37.132;2023-08-24T11:18:28;21.61;51.65
71396;DHT22;59888;55.814;37.132;2023-08-24T11:21:04;21.74;51.22
71396;DHT22;59888;55.814;37.132;2023-08-24T11:23:31;21.84;51.23
71396;DHT22;59888;55.814;37.132;2023-08-24T11:25:59;21.98;51.17
71396;DHT22;59888;55.814;37.132;2023-08-24T11:28:27;22.11;50.95
71396;DHT22;59888;55.814;37.132;2023-08-24T11:30:54;22.24;50.77
71396;DHT22;59888;55.814;37.132;2023-08-24T11:33:34;22.37;50.03
71396;DHT22;59888;55.814;37.132;2023-08-24T11:36:04;22.49;50.08
71396;DHT22;59888;55.814;37.132;2023-08-24T11:38:41;22.50;49.81
71396;DHT22;59888;55.814;37.132;2023-08-24T11:41:16;22.47;49.76
71396;DHT22;59888;55.814;37.132;2023-08-24T11:43:47;22.46;49.55
71396;DHT22;59888;55.814;37.132;2023-08-24T11:46:19;22.49;49.53
71396;DHT22;59888;55.814;37.132;2023-08-24T11:48:46;22.33;49.30
71396;DHT22;59888;55.814;37.132;2023-08-24T11:51:12;22.26;49.37
71396;DHT22;59888;55.814;37.132;2023-08-24T11:53:43;22.18;49.31
71396;DHT22;59888;55.814;37.132;2023-08-24T11:56:10;22.18;49.31
71396;DHT22;59888;55.814;37.132;2023-08-24T11:58:39;22.19;48.93
71396;DHT22;59888;55.814;37.132;2023-08-24T12:01:08;22.18;49.13
71396;DHT22;59888;55.814;37.132;2023-08-24T12:03:38;22.24;48.91
71396;DHT22;59888;55.814;37.132;2023-08-24T12:06:15;22.23;48.55
71396;DHT22;59888;55.814;37.132;2023-08-24T12:08:44;22.29;48.44
71396;DHT22;59888;55.814;37.132;2023-08-24T12:11:15;22.24;48.63
71396;DHT22;59888;55.814;37.132;2023-08-24T12:13:46;22.28;48.32
71396;DHT22;59888;55.814;37.132;2023-08-24T12:16:14;22.23;47.84
71396;DHT22;59888;55.814;37.132;2023-08-24T12:18:54;22.19;47.50
71396;DHT22;59888;55.814;37.132;2023-08-24T12:21:22;22.21;48.20
71396;DHT22;59888;55.814;37.132;2023-08-24T12:24:14;22.29;47.67
71396;DHT22;59888;55.814;37.132;2023-08-24T12:26:41;22.36;48.02
71396;DHT22;59888;55.814;37.132;2023-08-24T12:29:08;22.33;47.68
71396;DHT22;59888;55.814;37.132;2023-08-24T12:31:35;22.24;47.34
71396;DHT22;59888;55.814;37.132;2023-08-24T12:34:06;22.18;47.35
71396;DHT22;59888;55.814;37.132;2023-08-24T12:36:36;22.16;46.90
71396;DHT22;59888;55.814;37.132;2023-08-24T12:39:04;22.22;47.53
71396;DHT22;59888;55.814;37.132;2023-08-24T12:41:31;22.42;47.47
71396;DHT22;59888;55.814;37.132;2023-08-24T12:43:57;22.67;46.73
71396;DHT22;59888;55.814;37.132;2023-08-24T12:46:24;23.00;46.99
71396;DHT22;59888;55.814;37.132;2023-08-24T12:48:56;23.36;45.86
71396;DHT22;59888;55.814;37.132;2023-08-24T12:51:22;23.50;45.76
71396;DHT22;59888;55.814;37.132;2023-08-24T12:53:49;23.60;45.78
71396;DHT22;59888;55.814;37.132;2023-08-24T12:56:15;23.75;45.70
71396;DHT22;59888;55.814;37.132;2023-08-24T12:58:42;23.96;44.67
71396;DHT22;59888;55.814;37.132;2023-08-24T13:01:08;24.08;44.69
71396;DHT22;59888;55.814;37.132;2023-08-24T13:03:34;24.21;44.02
71396;DHT22;59888;55.814;37.132;2023-08-24T13:06:01;24.24;43.58
71396;DHT22;59888;55.814;37.132;2023-08-24T13:08:30;24.53;43.74
71396;DHT22;59888;55.814;37.132;2023-08-24T13:10:56;24.55;43.75
71396;DHT22;59888;55.814;37.132;2023-08-24T13:13:22;24.69;43.74
71396;DHT22;59888;55.814;37.132;2023-08-24T13:15:50;24.78;43.32
71396;DHT22;59888;55.814;37.132;2023-08-24T13:18:17;24.89;43.39
71396;DHT22;59888;55.814;37.132;2023-08-24T13:20:43;24.92;43.41
71396;DHT22;59888;55.814;37.132;2023-08-24T13:23:09;24.94;43.42
71396;DHT22;59888;55.814;37.132;2023-08-24T13:25:35;24.88;43.19
71396;DHT22;59888;55.814;37.132;2023-08-24T13:28:01;24.74;43.39
71396;DHT22;59888;55.814;37.132;2023-08-24T13:30:28;24.51;43.60
71396;DHT22;59888;55.814;37.132;2023-08-24T13:32:54;24.36;43.87
71396;DHT22;59888;55.814;37.132;2023-08-24T13:35:20;24.18;43.94
71396;DHT22;59888;55.814;37.132;2023-08-24T13:37:47;24.00;44.06
71396;DHT22;59888;55.814;37.132;2023-08-24T13:40:13;23.65;44.07
71396;DHT22;59888;55.814;37.132;2023-08-24T13:42:39;23.36;44.59
71396;DHT22;59888;55.814;37.132;2023-08-24T13:45:06;23.15;44.91
71396;DHT22;59888;55.814;37.132;2023-08-24T13:47:33;22.96;45.28
71396;DHT22;59888;55.814;37.132;2023-08-24T13:49:59;22.87;45.34
71396;DHT22;59888;55.814;37.132;2023-08-24T13:52:26;22.84;45.48
71396;DHT22;59888;55.814;37.132;2023-08-24T13:54:52;22.80;45.73
71396;DHT22;59888;55.814;37.132;2023-08-24T13:57:18;22.78;45.62
71396;DHT22;59888;55.814;37.132;2023-08-24T13:59:44;22.69;45.76
71396;DHT22;59888;55.814;37.132;2023-08-24T14:02:10;22.49;45.81
71396;DHT22;59888;55.814;37.132;2023-08-24T14:04:38;22.32;45.80
71396;DHT22;59888;55.814;37.132;2023-08-24T14:07:04;22.21;46.14
71396;DHT22;59888;55.814;37.132;2023-08-24T14:09:30;22.11;46.15
71396;DHT22;59888;55.814;37.132;2023-08-24T14:11:56;22.02;46.41
71396;DHT22;59888;55.814;37.132;2023-08-24T14:14:22;22.02;46.55
71396;DHT22;59888;55.814;37.132;2023-08-24T14:16:54;21.99;46.59
71396;DHT22;59888;55.814;37.132;2023-08-24T14:19:21;21.90;46.62
71396;DHT22;59888;55.814;37.132;2023-08-24T14:21:47;21.74;46.96
71396;DHT22;59888;55.814;37.132;2023-08-24T14:24:13;21.67;46.88
71396;DHT22;59888;55.814;37.132;2023-08-24T14:26:39;21.60;47.22
71396;DHT22;59888;55.814;37.132;2023-08-24T14:29:12;21.57;47.32
71396;DHT22;59888;55.814;37.132;2023-08-24T14:31:38;21.60;47.41
71396;DHT22;59888;55.814;37.132;2023-08-24T14:34:04;21.59;47.35
71396;DHT22;59888;55.814;37.132;2023-08-24T14:36:30;21.59;47.32
71396;DHT22;59888;55.814;37.132;2023-08-24T14:38:57;21.61;47.38
71396;DHT22;59888;55.814;37.132;2023-08-24T14:41:24;21.61;47.42
71396;DHT22;59888;55.814;37.132;2023-08-24T14:43:50;21.59;47.26
71396;DHT22;59888;55.814;37.132;2023-08-24T14:46:16;21.43;47.50
71396;DHT22;59888;55.814;37.132;2023-08-24T14:48:42;21.34;47.66
71396;DHT22;59888;55.814;37.132;2023-08-24T14:51:08;21.28;47.60
71396;DHT22;59888;55.814;37.132;2023-08-24T14:53:34;21.18;47.77
71396;DHT22;59888;55.814;37.132;2023-08-24T14:56:00;21.18;47.91
71396;DHT22;59888;55.814;37.132;2023-08-24T14:58:28;21.20;47.79
71396;DHT22;59888;55.814;37.132;2023-08-24T15:00:55;21.25;47.64
71396;DHT22;59888;55.814;37.132;2023-08-24T15:03:23;21.28;47.76
71396;DHT22;59888;55.814;37.132;2023-08-24T15:06:04;21.37;47.73
71396;DHT22;59888;55.814;37.132;2023-08-24T15:08:33;21.37;47.54
71396;DHT22;59888;55.814;37.132;2023-08-24T15:11:00;21.30;47.60
71396;DHT22;59888;55.814;37.132;2023-08-24T15:13:28;21.22;47.56
71396;DHT22;59888;55.814;37.132;2023-08-24T15:15:56;21.17;47.60
71396;DHT22;59888;55.814;37.132;2023-08-24T15:18:23;21.10;47.78
71396;DHT22;59888;55.814;37.132;2023-08-24T15:20:49;21.07;47.97
71396;DHT22;59888;55.814;37.132;2023-08-24T15:23:23;21.06;47.67
71396;DHT22;59888;55.814;37.132;2023-08-24T15:25:49;21.01;47.83
71396;DHT22;59888;55.814;37.132;2023-08-24T15:28:15;20.98;47.98
71396;DHT22;59888;55.814;37.132;2023-08-24T15:30:41;20.94;47.88
71396;DHT22;59888;55.814;37.132;2023-08-24T15:33:08;20.87;47.99